createdAt,value
2024-05-09T00:00:44.815Z,81.30
2024-05-09T00:03:13.020Z,82.24
2024-05-09T00:05:41.551Z,80.94
2024-05-09T00:08:10.553Z,81.82
2024-05-09T00:10:39.758Z,80.48
2024-05-09T00:13:09.378Z,82.85
2024-05-09T00:15:37.546Z,82.55
2024-05-09T00:18:07.367Z,84.01
2024-05-09T00:20:39.635Z,80.98
2024-05-09T00:23:11.990Z,79.76
2024-05-09T00:25:45.129Z,83.58
2024-05-09T00:28:13.842Z,83.31
2024-05-09T00:30:42.576Z,82.49
2024-05-09T00:33:11.607Z,83.64
2024-05-09T00:35:40.234Z,85.73
2024-05-09T00:38:08.417Z,85.63
2024-05-09T00:40:42.237Z,84.15
2024-05-09T00:43:12.712Z,86.77
2024-05-09T00:45:41.745Z,84.65
2024-05-09T00:48:10.597Z,85.81
2024-05-09T00:50:41.788Z,85.70
2024-05-09T00:53:14.315Z,86.68
2024-05-09T00:55:42.142Z,88.51
2024-05-09T00:58:11.141Z,87.76
2024-05-09T01:00:40.959Z,87.53
2024-05-09T01:03:12.105Z,86.67
2024-05-09T01:05:43.000Z,88.69
2024-05-09T01:08:11.679Z,88.47
2024-05-09T01:10:42.812Z,89.37
2024-05-09T01:13:13.126Z,90.01
2024-05-09T01:15:41.115Z,88.44
2024-05-09T01:18:11.273Z,91.11
2024-05-09T01:20:43.330Z,90.50
2024-05-09T01:23:15.133Z,92.78
2024-05-09T01:25:45.302Z,92.21
2024-05-09T01:28:14.266Z,92.54
2024-05-09T01:30:42.317Z,94.13
2024-05-09T01:33:11.898Z,92.55
2024-05-09T01:35:42.341Z,94.50
2024-05-09T01:38:17.421Z,94.00
2024-05-09T01:40:46.315Z,94.21
2024-05-09T01:43:14.357Z,96.27
2024-05-09T01:45:42.454Z,96.40
2024-05-09T01:48:11.201Z,95.70
2024-05-09T01:50:42.191Z,96.31
2024-05-09T01:53:12.623Z,95.59
2024-05-09T01:55:41.112Z,96.13
2024-05-09T01:58:09.006Z,97.71
2024-05-09T02:00:41.156Z,97.26
2024-05-09T02:03:14.578Z,97.47
2024-05-09T02:05:45.746Z,96.75
2024-05-09T02:08:17.717Z,95.61
2024-05-09T02:10:47.465Z,97.04
2024-05-09T02:13:16.191Z,98.83
2024-05-09T02:15:44.531Z,97.94
2024-05-09T02:18:12.987Z,95.82
2024-05-09T02:20:41.917Z,97.73
2024-05-09T02:23:10.544Z,97.11
2024-05-09T02:25:39.074Z,97.13
2024-05-09T02:28:07.140Z,97.63
2024-05-09T02:30:39.728Z,98.04
2024-05-09T02:33:11.844Z,98.50
2024-05-09T02:35:42.591Z,96.73
2024-05-09T02:38:11.473Z,98.31
2024-05-09T02:40:40.131Z,97.42
2024-05-09T02:43:10.368Z,99.49
2024-05-09T02:45:40.325Z,100.00
2024-05-09T02:48:12.804Z,99.24
2024-05-09T02:50:42.033Z,99.63
2024-05-09T02:53:11.486Z,100.00
2024-05-09T02:55:39.305Z,100.00
2024-05-09T02:58:10.100Z,98.98
2024-05-09T03:00:41.273Z,99.61
2024-05-09T03:03:13.462Z,99.28
2024-05-09T03:05:44.058Z,100.00
2024-05-09T03:08:12.300Z,99.87
2024-05-09T03:10:40.504Z,98.53
2024-05-09T03:13:08.881Z,99.02
2024-05-09T03:15:37.133Z,98.75
2024-05-09T03:18:06.332Z,98.35
2024-05-09T03:20:36.248Z,98.33
2024-05-09T03:23:06.349Z,97.53
2024-05-09T03:25:34.738Z,95.60
2024-05-09T03:28:02.887Z,97.96
2024-05-09T03:30:39.577Z,97.16
2024-05-09T03:33:17.692Z,95.75
2024-05-09T03:35:47.696Z,97.61
2024-05-09T03:38:15.979Z,96.04
2024-05-09T03:40:48.046Z,93.13
2024-05-09T03:43:16.599Z,91.81
2024-05-09T03:45:44.591Z,92.19
2024-05-09T03:48:13.345Z,91.53
2024-05-09T03:50:41.700Z,93.85
2024-05-09T03:53:13.407Z,91.41
2024-05-09T03:55:41.594Z,90.17
2024-05-09T03:58:09.513Z,89.04
2024-05-09T04:00:39.905Z,87.75
2024-05-09T04:03:11.876Z,85.43
2024-05-09T04:05:42.615Z,87.16
2024-05-09T04:08:15.256Z,87.79
2024-05-09T04:10:43.713Z,82.34
2024-05-09T04:13:11.718Z,81.08
2024-05-09T04:15:39.839Z,78.80
2024-05-09T04:18:07.980Z,80.54
2024-05-09T04:20:39.553Z,78.19
2024-05-09T04:23:13.714Z,78.27
2024-05-09T04:25:45.112Z,77.01
2024-05-09T04:28:14.444Z,77.89
2024-05-09T04:30:43.096Z,73.76
2024-05-09T04:33:13.308Z,72.18
2024-05-09T04:35:45.682Z,65.35
2024-05-09T04:38:14.560Z,61.36
2024-05-09T04:40:43.511Z,58.70
2024-05-09T04:43:16.178Z,59.68
2024-05-09T04:45:44.554Z,61.94
2024-05-09T04:48:12.613Z,59.36
2024-05-09T04:50:40.826Z,55.73
2024-05-09T04:53:10.357Z,56.47
2024-05-09T04:55:40.458Z,55.31
2024-05-09T04:58:09.274Z,55.50
2024-05-09T05:00:39.710Z,55.65
2024-05-09T05:03:11.546Z,55.92
2024-05-09T05:05:41.883Z,56.19
2024-05-09T05:08:13.874Z,58.09
2024-05-09T05:10:42.773Z,59.76
2024-05-09T05:13:23.865Z,58.15
2024-05-09T05:15:55.763Z,59.67
2024-05-09T05:18:25.045Z,60.59
2024-05-09T05:20:53.047Z,62.81
2024-05-09T05:23:21.781Z,65.88
2024-05-09T05:25:50.201Z,65.53
2024-05-09T05:28:18.232Z,67.26
2024-05-09T05:30:46.232Z,66.29
2024-05-09T05:33:15.127Z,66.67
2024-05-09T05:35:43.611Z,65.97
2024-05-09T05:38:11.655Z,63.63
2024-05-09T05:40:40.389Z,64.55
2024-05-09T05:43:10.439Z,65.38
2024-05-09T05:45:39.134Z,62.73
2024-05-09T05:48:08.070Z,61.94
2024-05-09T05:50:38.071Z,61.28
2024-05-09T05:53:08.028Z,61.23
2024-05-09T05:55:37.347Z,56.44
2024-05-09T05:58:05.307Z,55.94
2024-05-09T06:00:38.887Z,55.10
2024-05-09T06:03:09.671Z,55.00
2024-05-09T06:05:44.104Z,55.53
2024-05-09T06:08:12.634Z,53.72
2024-05-09T06:10:41.775Z,55.47
2024-05-09T06:13:14.009Z,55.25
2024-05-09T06:15:43.036Z,56.20
2024-05-09T06:18:12.473Z,54.38
2024-05-09T06:20:43.136Z,51.84
2024-05-09T06:23:12.838Z,49.71
2024-05-09T06:25:40.703Z,50.62
2024-05-09T06:28:08.580Z,51.16
2024-05-09T06:30:40.670Z,50.31
2024-05-09T06:33:12.499Z,47.04
2024-05-09T06:35:43.086Z,47.73
2024-05-09T06:38:11.683Z,46.74
2024-05-09T06:40:41.995Z,47.80
2024-05-09T06:43:15.393Z,48.10
2024-05-09T06:45:46.190Z,45.94
2024-05-09T06:48:14.449Z,46.08
2024-05-09T06:50:42.632Z,46.91
2024-05-09T06:53:10.677Z,45.67
2024-05-09T06:55:38.756Z,44.38
2024-05-09T06:58:07.068Z,45.35
2024-05-09T07:00:39.529Z,43.50
2024-05-09T07:03:11.138Z,43.96
2024-05-09T07:05:40.273Z,45.16
2024-05-09T07:08:08.428Z,44.05
2024-05-09T07:10:37.171Z,40.82
2024-05-09T07:13:11.765Z,38.23
2024-05-09T07:15:39.781Z,35.92
2024-05-09T07:18:18.284Z,33.06
2024-05-09T07:20:49.009Z,31.22
2024-05-09T07:23:18.005Z,31.97
2024-05-09T07:25:46.415Z,27.80
2024-05-09T07:28:16.102Z,27.10
2024-05-09T07:30:44.306Z,28.04
2024-05-09T07:33:22.927Z,27.46
2024-05-09T07:35:52.582Z,25.70
2024-05-09T07:38:20.844Z,25.45
2024-05-09T07:40:49.438Z,24.95
2024-05-09T07:43:17.336Z,24.09
2024-05-09T07:45:52.427Z,26.33
2024-05-09T07:52:38.355Z,26.67
2024-05-09T07:53:47.145Z,28.21
2024-05-09T07:56:19.417Z,26.68
2024-05-09T07:58:50.040Z,24.97
2024-05-09T08:01:17.724Z,25.78
2024-05-09T08:03:46.043Z,25.37
2024-05-09T08:06:13.778Z,26.11
2024-05-09T08:08:41.336Z,25.59
2024-05-09T08:11:09.319Z,24.85
2024-05-09T08:13:37.517Z,26.00
2024-05-09T08:16:05.983Z,25.32
2024-05-09T08:18:34.166Z,27.35
2024-05-09T08:21:02.183Z,28.09
2024-05-09T08:23:30.207Z,27.97
2024-05-09T08:25:58.160Z,27.79
2024-05-09T08:28:26.028Z,28.49
2024-05-09T08:30:54.141Z,28.46
2024-05-09T08:33:22.311Z,28.83
2024-05-09T08:35:49.948Z,27.70
2024-05-09T08:38:18.200Z,27.59
2024-05-09T08:40:46.283Z,27.00
2024-05-09T08:43:14.133Z,27.12
2024-05-09T08:45:43.967Z,26.89
2024-05-09T08:48:15.230Z,27.88
2024-05-09T08:50:45.385Z,27.05
2024-05-09T08:53:15.460Z,27.40
2024-05-09T08:55:44.743Z,26.52
2024-05-09T08:58:17.125Z,28.06
2024-05-09T09:00:46.282Z,27.25
2024-05-09T09:03:18.683Z,29.38
2024-05-09T09:05:53.155Z,28.38
2024-05-09T09:08:20.805Z,29.59
2024-05-09T09:10:48.914Z,28.93
2024-05-09T09:13:17.004Z,29.33
2024-05-09T09:15:49.756Z,28.69
2024-05-09T09:18:18.547Z,29.60
2024-05-09T09:20:46.888Z,28.47
2024-05-09T09:23:15.181Z,28.48
2024-05-09T09:25:43.234Z,28.67
2024-05-09T09:28:11.357Z,30.23
2024-05-09T09:30:42.861Z,30.30
2024-05-09T09:33:11.592Z,31.38
2024-05-09T09:35:40.039Z,32.14
2024-05-09T09:38:08.370Z,32.38
2024-05-09T09:40:40.802Z,32.71
2024-05-09T09:43:14.977Z,32.69
2024-05-09T09:45:43.835Z,32.07
2024-05-09T09:48:12.576Z,31.72
2024-05-09T09:50:40.711Z,31.48
2024-05-09T09:53:08.579Z,30.94
2024-05-09T09:55:36.999Z,31.37
2024-05-09T09:58:06.484Z,31.45
2024-05-09T10:00:35.973Z,30.36
2024-05-09T10:03:03.777Z,29.48
2024-05-09T10:05:33.424Z,30.06
2024-05-09T10:08:06.186Z,30.62
2024-05-09T10:10:36.184Z,31.42
2024-05-09T10:13:07.660Z,31.01
2024-05-09T10:15:46.110Z,33.13
2024-05-09T10:18:15.032Z,31.44
2024-05-09T10:20:43.658Z,32.14
2024-05-09T10:23:27.316Z,29.57
2024-05-09T10:26:05.656Z,30.63
2024-05-09T10:28:38.081Z,30.06
2024-05-09T10:31:13.675Z,29.58
2024-05-09T10:33:52.342Z,30.99
2024-05-09T10:36:27.527Z,29.65
2024-05-09T10:38:56.075Z,30.14
2024-05-09T10:41:24.152Z,29.23
2024-05-09T10:43:52.286Z,30.03
2024-05-09T10:46:20.454Z,30.79
2024-05-09T10:48:50.242Z,30.40
2024-05-09T10:51:19.882Z,29.74
2024-05-09T10:53:48.232Z,29.81
2024-05-09T10:56:16.820Z,29.51
2024-05-09T10:58:45.297Z,30.00
2024-05-09T11:01:13.880Z,29.47
2024-05-09T11:03:42.265Z,29.29
2024-05-09T11:06:11.461Z,29.65
2024-05-09T11:08:39.594Z,28.52
2024-05-09T11:11:08.622Z,28.35
2024-05-09T11:13:38.158Z,28.64
2024-05-09T11:16:06.917Z,29.58
2024-05-09T11:18:38.280Z,29.13
2024-05-09T11:21:14.479Z,30.45
2024-05-09T11:23:42.416Z,29.64
2024-05-09T11:26:11.191Z,28.91
2024-05-09T11:28:39.162Z,29.02
2024-05-09T11:31:08.819Z,29.61
2024-05-09T11:33:41.084Z,30.38
2024-05-09T11:36:09.723Z,30.13
2024-05-09T11:38:38.054Z,30.71
2024-05-09T11:41:06.011Z,30.41
2024-05-09T11:43:33.991Z,29.63
2024-05-09T11:46:03.665Z,30.20
2024-05-09T11:48:32.516Z,29.71
2024-05-09T11:51:00.677Z,29.07
2024-05-09T11:53:28.463Z,30.03
2024-05-09T11:55:56.296Z,30.24
2024-05-09T11:58:24.118Z,30.53
2024-05-09T12:00:52.290Z,30.64
2024-05-09T12:03:20.923Z,30.61
2024-05-09T12:05:49.020Z,30.33
2024-05-09T12:08:16.914Z,29.20
2024-05-09T12:10:45.030Z,29.89
2024-05-09T12:13:13.048Z,30.31
2024-05-09T12:15:41.105Z,29.97
2024-05-09T12:18:09.211Z,31.10
2024-05-09T12:20:39.598Z,30.11
2024-05-09T12:23:09.983Z,30.80
2024-05-09T12:25:39.487Z,29.42
2024-05-09T12:28:08.284Z,29.51
2024-05-09T12:30:41.023Z,29.77
2024-05-09T12:33:11.306Z,29.47
2024-05-09T12:35:40.612Z,29.19
2024-05-09T12:38:08.801Z,28.86
2024-05-09T12:40:38.704Z,29.41
2024-05-09T12:43:08.582Z,28.92
2024-05-09T12:45:38.134Z,28.04
2024-05-09T12:48:08.676Z,27.93
2024-05-09T12:50:38.702Z,29.25
2024-05-09T12:53:06.518Z,29.51
2024-05-09T12:55:41.450Z,28.13
2024-05-09T12:58:17.555Z,28.15
2024-05-09T13:00:46.191Z,28.23
2024-05-09T13:03:14.918Z,29.18
2024-05-09T13:05:45.247Z,29.46
2024-05-09T13:08:13.807Z,30.73
2024-05-09T13:10:41.982Z,29.73
2024-05-09T13:13:10.613Z,29.43
2024-05-09T13:15:38.885Z,29.66
2024-05-09T13:18:07.245Z,29.04
2024-05-09T13:20:36.571Z,29.09
2024-05-09T13:23:06.226Z,29.41
2024-05-09T13:25:35.648Z,29.46
2024-05-09T13:28:04.701Z,29.69
2024-05-09T13:30:39.415Z,29.51
2024-05-09T13:33:11.400Z,30.26
2024-05-09T13:35:46.778Z,30.41
2024-05-09T13:38:18.775Z,30.31
2024-05-09T13:40:47.206Z,30.44
2024-05-09T13:43:15.444Z,30.04
2024-05-09T13:45:43.566Z,30.15
2024-05-09T13:48:11.695Z,29.79
2024-05-09T13:50:39.839Z,29.45
2024-05-09T13:53:08.515Z,30.04
2024-05-09T13:55:40.425Z,29.89
2024-05-09T13:58:09.333Z,29.34
2024-05-09T14:00:45.921Z,29.02
2024-05-09T14:03:18.434Z,29.15
2024-05-09T14:05:48.168Z,28.40
2024-05-09T14:08:17.975Z,27.98
2024-05-09T14:10:47.300Z,29.89
2024-05-09T14:13:15.726Z,28.64
2024-05-09T14:15:43.788Z,29.54
2024-05-09T14:18:13.829Z,28.48
2024-05-09T14:20:43.107Z,29.01
2024-05-09T14:23:11.231Z,29.04
2024-05-09T14:25:42.697Z,28.23
2024-05-09T14:28:12.975Z,29.21
2024-05-09T14:30:42.181Z,28.26
2024-05-09T14:33:11.631Z,28.90
2024-05-09T14:35:39.813Z,29.14
2024-05-09T14:38:08.861Z,28.51
2024-05-09T14:40:42.019Z,30.06
2024-05-09T14:43:12.880Z,29.67
2024-05-09T14:45:41.830Z,29.52
2024-05-09T14:48:10.591Z,30.00
2024-05-09T14:50:40.301Z,29.81
2024-05-09T14:53:10.303Z,29.21
2024-05-09T14:55:43.136Z,31.33
2024-05-09T14:58:13.550Z,28.94
2024-05-09T15:00:46.354Z,29.39
2024-05-09T15:03:19.982Z,30.19
2024-05-09T15:05:48.587Z,29.83
2024-05-09T15:08:17.563Z,30.31
2024-05-09T15:10:46.012Z,31.17
2024-05-09T15:13:16.519Z,31.72
2024-05-09T15:15:45.237Z,31.27
2024-05-09T15:18:14.480Z,31.43
2024-05-09T15:20:43.821Z,32.30
2024-05-09T15:23:11.895Z,32.14
2024-05-09T15:25:40.467Z,31.65
2024-05-09T15:28:08.669Z,32.21
2024-05-09T15:30:36.966Z,32.37
2024-05-09T15:33:06.397Z,32.80
2024-05-09T15:35:36.062Z,33.16
2024-05-09T15:38:04.773Z,32.11
2024-05-09T15:40:39.544Z,30.94
2024-05-09T15:43:10.466Z,31.06
2024-05-09T15:45:41.042Z,32.11
2024-05-09T15:48:10.655Z,32.14
2024-05-09T15:50:41.572Z,32.76
2024-05-09T15:53:12.169Z,33.19
2024-05-09T15:55:42.406Z,32.07
2024-05-09T15:58:10.570Z,31.84
2024-05-09T16:00:42.120Z,32.91
2024-05-09T16:03:12.868Z,34.46
2024-05-09T16:05:43.236Z,34.04
2024-05-09T16:08:12.335Z,34.10
2024-05-09T16:10:44.413Z,33.23
2024-05-09T16:13:14.049Z,34.18
2024-05-09T16:15:43.494Z,34.53
2024-05-09T16:18:11.584Z,33.68
2024-05-09T16:20:41.755Z,34.99
2024-05-09T16:23:11.453Z,35.94
2024-05-09T16:25:40.039Z,33.50
2024-05-09T16:28:10.495Z,33.94
2024-05-09T16:30:40.058Z,34.47
2024-05-09T16:33:09.022Z,34.98
2024-05-09T16:35:37.965Z,35.24
2024-05-09T16:38:08.902Z,34.26
2024-05-09T16:40:40.154Z,32.75
2024-05-09T16:43:10.434Z,34.19
2024-05-09T16:45:40.030Z,33.78
2024-05-09T16:48:08.449Z,33.90
2024-05-09T16:50:37.006Z,32.35
2024-05-09T16:53:06.152Z,35.55
2024-05-09T16:55:35.849Z,33.12
2024-05-09T16:58:04.993Z,33.98
2024-05-09T17:00:40.329Z,34.37
2024-05-09T17:03:15.838Z,34.94
2024-05-09T17:05:47.642Z,34.64
2024-05-09T17:08:17.064Z,34.85
2024-05-09T17:10:46.179Z,33.43
2024-05-09T17:13:14.709Z,35.22
2024-05-09T17:15:42.349Z,35.95
2024-05-09T17:18:10.359Z,35.69
2024-05-09T17:20:38.372Z,35.13
2024-05-09T17:23:13.612Z,35.30
2024-05-09T17:25:42.504Z,34.86
2024-05-09T17:28:10.996Z,34.93
2024-05-09T17:30:40.779Z,34.44
2024-05-09T17:33:11.326Z,35.01
2024-05-09T17:35:40.619Z,34.40
2024-05-09T17:38:08.754Z,35.41
2024-05-09T17:40:38.313Z,33.94
2024-05-09T17:43:09.628Z,35.34
2024-05-09T17:45:41.747Z,35.01
2024-05-09T17:48:11.662Z,35.61
2024-05-09T17:50:41.224Z,35.25
2024-05-09T17:53:10.965Z,35.18
2024-05-09T17:55:40.547Z,34.47
2024-05-09T17:58:08.570Z,34.44
2024-05-09T18:00:40.140Z,34.88
2024-05-09T18:03:13.971Z,36.52
2024-05-09T18:05:43.995Z,36.25
2024-05-09T18:08:13.358Z,35.28
2024-05-09T18:10:41.826Z,36.89
2024-05-09T18:13:11.074Z,36.79
2024-05-09T18:15:39.896Z,36.68
2024-05-09T18:18:09.182Z,37.45
2024-05-09T18:20:42.763Z,38.03
2024-05-09T18:23:14.846Z,38.27
2024-05-09T18:25:44.052Z,37.92
2024-05-09T18:28:11.945Z,38.39
2024-05-09T18:30:40.504Z,39.89
2024-05-09T18:33:10.253Z,39.13
2024-05-09T18:35:38.706Z,39.74
2024-05-09T18:38:06.615Z,40.47
2024-05-09T18:40:37.162Z,41.00
2024-05-09T18:43:08.194Z,40.88
2024-05-09T18:45:37.977Z,42.33
2024-05-09T18:48:08.409Z,42.76
2024-05-09T18:50:39.624Z,43.97
2024-05-09T18:53:11.384Z,43.75
2024-05-09T18:55:41.564Z,44.94
2024-05-09T18:58:09.729Z,45.47
2024-05-09T19:00:40.057Z,45.30
2024-05-09T19:03:13.044Z,45.69
2024-05-09T19:05:43.956Z,46.39
2024-05-09T19:08:13.367Z,47.08
2024-05-09T19:10:41.642Z,46.51
2024-05-09T19:13:12.715Z,47.32
2024-05-09T19:15:43.230Z,48.58
2024-05-09T19:18:12.720Z,48.53
2024-05-09T19:20:41.413Z,47.70
2024-05-09T19:23:09.081Z,47.87
2024-05-09T19:25:37.003Z,48.44
2024-05-09T19:28:05.630Z,49.11
2024-05-09T19:30:40.294Z,49.35
2024-05-09T19:33:13.033Z,49.94
2024-05-09T19:35:42.783Z,50.10
2024-05-09T19:38:10.909Z,49.78
2024-05-09T19:40:39.061Z,50.82
2024-05-09T19:43:07.447Z,52.41
2024-05-09T19:45:36.355Z,52.89
2024-05-09T19:48:06.017Z,53.11
2024-05-09T19:50:41.531Z,53.34
2024-05-09T19:53:13.180Z,54.17
2024-05-09T19:55:41.713Z,54.04
2024-05-09T19:58:10.100Z,53.46
2024-05-09T20:00:41.047Z,54.56
2024-05-09T20:03:12.049Z,55.13
2024-05-09T20:05:42.281Z,55.32
2024-05-09T20:08:10.483Z,55.79
2024-05-09T20:10:39.122Z,55.76
2024-05-09T20:13:08.455Z,56.95
2024-05-09T20:15:37.946Z,57.83
2024-05-09T20:18:07.085Z,57.99
2024-05-09T20:20:39.670Z,58.27
2024-05-09T20:23:13.605Z,58.34
2024-05-09T20:25:41.913Z,60.15
2024-05-09T20:28:10.773Z,59.68
2024-05-09T20:30:39.285Z,57.25
2024-05-09T20:33:08.421Z,58.53
2024-05-09T20:35:37.609Z,58.22
2024-05-09T20:38:05.951Z,58.72
2024-05-09T20:40:37.640Z,59.95
2024-05-09T20:43:10.860Z,58.50
2024-05-09T20:45:40.055Z,59.85
2024-05-09T20:48:09.078Z,59.88
2024-05-09T20:50:40.716Z,59.52
2024-05-09T20:53:11.750Z,59.35
2024-05-09T20:55:40.783Z,58.85
2024-05-09T20:58:09.694Z,59.01
2024-05-09T21:00:41.706Z,57.90
2024-05-09T21:03:13.461Z,58.57
2024-05-09T21:05:42.494Z,58.07
2024-05-09T21:08:10.692Z,59.35
2024-05-09T21:10:39.095Z,58.67
2024-05-09T21:13:07.682Z,61.21
2024-05-09T21:15:36.107Z,59.64
2024-05-09T21:18:05.006Z,60.27
2024-05-09T21:20:35.123Z,59.54
2024-05-09T21:23:03.815Z,60.88
2024-05-09T21:25:31.852Z,57.39
2024-05-09T21:28:00.473Z,58.05
2024-05-09T21:30:38.377Z,58.14
2024-05-09T21:33:11.641Z,59.78
2024-05-09T21:35:41.378Z,60.27
2024-05-09T21:38:09.429Z,57.87
2024-05-09T21:40:38.305Z,57.22
2024-05-09T21:43:07.314Z,58.36
2024-05-09T21:45:36.814Z,56.48
2024-05-09T21:48:05.681Z,57.11
2024-05-09T21:50:39.831Z,58.50
2024-05-09T21:53:13.588Z,59.54
2024-05-09T21:55:42.672Z,60.03
2024-05-09T21:58:11.515Z,62.09
2024-05-09T22:00:40.917Z,62.89
2024-05-09T22:03:10.495Z,62.88
2024-05-09T22:05:42.361Z,63.24
2024-05-09T22:08:11.144Z,62.63
2024-05-09T22:10:39.253Z,64.99
2024-05-09T22:13:08.543Z,63.82
2024-05-09T22:15:38.486Z,64.03
2024-05-09T22:18:08.961Z,64.83
2024-05-09T22:20:44.639Z,65.86
2024-05-09T22:23:14.683Z,66.16
2024-05-09T22:25:42.662Z,66.70
2024-05-09T22:28:10.845Z,67.51
2024-05-09T22:30:40.145Z,67.61
2024-05-09T22:33:10.126Z,66.32
2024-05-09T22:35:40.591Z,66.77
2024-05-09T22:38:09.183Z,67.18
2024-05-09T22:40:45.624Z,67.46
2024-05-09T22:43:21.385Z,66.16
2024-05-09T22:45:51.482Z,68.55
2024-05-09T22:48:19.935Z,66.77
2024-05-09T22:50:47.952Z,67.69
2024-05-09T22:53:15.756Z,66.22
2024-05-09T22:55:43.799Z,66.84
2024-05-09T22:58:11.696Z,67.43
2024-05-09T23:00:40.232Z,68.15
2024-05-09T23:03:08.364Z,68.68
2024-05-09T23:05:36.285Z,67.65
2024-05-09T23:08:04.607Z,67.13
2024-05-09T23:10:36.567Z,67.15
2024-05-09T23:13:07.379Z,68.36
2024-05-09T23:15:36.943Z,69.67
2024-05-09T23:18:05.655Z,67.18
2024-05-09T23:20:38.142Z,66.83
2024-05-09T23:23:08.357Z,68.97
2024-05-09T23:25:37.090Z,69.99
2024-05-09T23:28:05.583Z,70.68
2024-05-09T23:30:38.352Z,69.64
2024-05-09T23:33:12.877Z,70.23
2024-05-09T23:35:41.726Z,71.88
2024-05-09T23:38:09.576Z,71.87
2024-05-09T23:40:40.269Z,72.09
2024-05-09T23:43:10.750Z,71.59
2024-05-09T23:45:39.386Z,72.59
2024-05-09T23:48:07.579Z,72.28
2024-05-09T23:50:38.269Z,73.25
2024-05-09T23:53:09.422Z,72.00
2024-05-09T23:55:38.561Z,71.42
2024-05-09T23:58:07.520Z,71.74
